createdAt,value
2019-03-09T00:00:12.999Z,1006.83
2019-03-09T00:01:22.467Z,1006.79
2019-03-09T00:02:32.759Z,1006.79
2019-03-09T00:03:43.235Z,1006.76
2019-03-09T00:04:53.607Z,1006.76
2019-03-09T00:06:04.168Z,1006.72
2019-03-09T00:07:16.415Z,1006.74
2019-03-09T00:08:26.329Z,1006.7
2019-03-09T00:09:36.339Z,1006.68
2019-03-09T00:10:46.303Z,1006.68
2019-03-09T00:11:56.033Z,1006.62
2019-03-09T00:13:05.750Z,1006.63
2019-03-09T00:14:15.741Z,1006.64
2019-03-09T00:15:25.474Z,1006.55
2019-03-09T00:16:35.435Z,1006.51
2019-03-09T00:17:45.414Z,1006.53
2019-03-09T00:18:55.126Z,1006.52
2019-03-09T00:20:04.824Z,1006.49
2019-03-09T00:21:14.813Z,1006.5
2019-03-09T00:22:24.262Z,1006.45
2019-03-09T00:23:34.221Z,1006.45
2019-03-09T00:24:43.945Z,1006.39
2019-03-09T00:25:53.911Z,1006.38
2019-03-09T00:27:04.767Z,1006.36
2019-03-09T00:28:14.732Z,1006.37
2019-03-09T00:29:24.732Z,1006.36
2019-03-09T00:30:34.695Z,1006.35
2019-03-09T00:31:44.651Z,1006.37
2019-03-09T00:32:54.631Z,1006.34
2019-03-09T00:34:04.641Z,1006.35
2019-03-09T00:35:14.368Z,1006.34
2019-03-09T00:36:23.823Z,1006.37
2019-03-09T00:37:35.787Z,1006.35
2019-03-09T00:38:45.744Z,1006.3
2019-03-09T00:39:55.717Z,1006.29
2019-03-09T00:41:05.643Z,1006.27
2019-03-09T00:42:15.571Z,1006.3
2019-03-09T00:43:26.120Z,1006.23
2019-03-09T00:44:36.132Z,1006.14
2019-03-09T00:45:46.564Z,1006.18
2019-03-09T00:46:57.013Z,1006.18
2019-03-09T00:48:07.197Z,1006.18
2019-03-09T00:49:17.290Z,1006.25
2019-03-09T00:50:27.251Z,1006.16
2019-03-09T00:51:36.713Z,1006.09
2019-03-09T00:52:46.683Z,1006.06
2019-03-09T00:53:56.396Z,1006.04
2019-03-09T00:55:06.132Z,1006.04
2019-03-09T00:56:16.091Z,1006.06
2019-03-09T00:57:26.028Z,1006.04
2019-03-09T00:58:35.967Z,1005.98
2019-03-09T00:59:45.913Z,1005.95
2019-03-09T01:00:55.622Z,1006.04
2019-03-09T01:02:05.559Z,1006.01
2019-03-09T01:03:15.520Z,1006.06
2019-03-09T01:04:25.227Z,1006.06
2019-03-09T01:05:35.172Z,1006
2019-03-09T01:06:45.127Z,1005.96
2019-03-09T01:07:55.095Z,1005.9
2019-03-09T01:09:04.809Z,1005.95
2019-03-09T01:10:14.761Z,1005.88
2019-03-09T01:11:24.461Z,1005.88
2019-03-09T01:12:34.151Z,1005.91
2019-03-09T01:13:44.707Z,1005.91
2019-03-09T01:14:54.707Z,1005.78
2019-03-09T01:16:04.675Z,1005.78
2019-03-09T01:17:14.392Z,1005.76
2019-03-09T01:18:24.101Z,1005.83
2019-03-09T01:19:33.808Z,1005.74
2019-03-09T01:20:43.819Z,1005.78
2019-03-09T01:21:53.767Z,1005.71
2019-03-09T01:23:03.711Z,1005.7
2019-03-09T01:24:13.447Z,1005.62
2019-03-09T01:25:23.392Z,1005.62
2019-03-09T01:26:33.345Z,1005.69
2019-03-09T01:27:43.293Z,1005.59
2019-03-09T01:28:53.243Z,1005.51
2019-03-09T01:30:02.950Z,1005.49
2019-03-09T01:31:12.899Z,1005.47
2019-03-09T01:32:22.843Z,1005.54
2019-03-09T01:33:32.528Z,1005.5
2019-03-09T01:34:41.959Z,1005.41
2019-03-09T01:35:51.660Z,1005.46
2019-03-09T01:37:01.361Z,1005.46
2019-03-09T01:38:11.331Z,1005.44
2019-03-09T01:39:21.025Z,1005.39
2019-03-09T01:40:30.963Z,1005.32
2019-03-09T01:41:40.931Z,1005.28
2019-03-09T01:42:50.382Z,1005.24
2019-03-09T01:44:00.230Z,1005.24
2019-03-09T01:45:10.161Z,1005.09
2019-03-09T01:46:19.856Z,1005.07
2019-03-09T01:47:29.834Z,1005.08
2019-03-09T01:48:39.797Z,1005.06
2019-03-09T01:49:49.744Z,1005.08
2019-03-09T01:50:59.446Z,1005.05
2019-03-09T01:52:08.899Z,1004.91
2019-03-09T01:53:18.851Z,1004.96
2019-03-09T01:54:37.087Z,1005.04
2019-03-09T01:55:46.843Z,1004.98
2019-03-09T01:56:56.796Z,1004.94
2019-03-09T01:58:06.732Z,1004.89
2019-03-09T01:59:16.686Z,1004.87
2019-03-09T02:00:26.633Z,1004.97
2019-03-09T02:01:36.577Z,1004.91
2019-03-09T02:02:46.532Z,1004.89
2019-03-09T02:03:56.509Z,1004.79
2019-03-09T02:05:06.210Z,1004.82
2019-03-09T02:06:15.950Z,1004.78
2019-03-09T02:07:25.886Z,1004.84
2019-03-09T02:08:35.575Z,1004.76
2019-03-09T02:09:45.268Z,1004.83
2019-03-09T02:10:55.006Z,1004.7
2019-03-09T02:12:04.940Z,1004.69
2019-03-09T02:13:14.383Z,1004.65
2019-03-09T02:14:24.083Z,1004.86
2019-03-09T02:15:33.765Z,1004.67
2019-03-09T02:16:43.703Z,1004.59
2019-03-09T02:17:53.643Z,1004.52
2019-03-09T02:19:03.319Z,1004.52
2019-03-09T02:20:13.038Z,1004.59
2019-03-09T02:21:22.986Z,1004.52
2019-03-09T02:22:33.148Z,1004.51
2019-03-09T02:23:43.094Z,1004.47
2019-03-09T02:24:53.036Z,1004.65
2019-03-09T02:26:02.947Z,1004.42
2019-03-09T02:27:12.879Z,1004.53
2019-03-09T02:28:22.562Z,1004.47
2019-03-09T02:29:32.516Z,1004.46
2019-03-09T02:30:42.215Z,1004.42
2019-03-09T02:31:51.915Z,1004.42
2019-03-09T02:33:01.920Z,1004.4
2019-03-09T02:34:11.935Z,1004.4
2019-03-09T02:35:21.659Z,1004.3
2019-03-09T02:36:31.393Z,1004.27
2019-03-09T02:37:41.363Z,1004.18
2019-03-09T02:38:51.079Z,1004.23
2019-03-09T02:40:00.637Z,1004.23
2019-03-09T02:41:10.125Z,1004.25
2019-03-09T02:42:19.882Z,1004.4
2019-03-09T02:43:29.827Z,1004.14
2019-03-09T02:44:39.276Z,1004.2
2019-03-09T02:45:48.993Z,1004.2
2019-03-09T02:46:58.684Z,1004.11
2019-03-09T02:48:08.688Z,1004.11
2019-03-09T02:49:18.654Z,1004.09
2019-03-09T02:50:28.638Z,1004.02
2019-03-09T02:51:38.344Z,1003.98
2019-03-09T02:52:48.303Z,1004.08
2019-03-09T02:53:58.275Z,1004.01
2019-03-09T02:55:08.246Z,1003.89
2019-03-09T02:56:18.073Z,1003.84
2019-03-09T02:57:28.021Z,1003.85
2019-03-09T02:58:37.464Z,1003.74
2019-03-09T02:59:47.496Z,1003.69
2019-03-09T03:00:57.448Z,1003.69
2019-03-09T03:02:07.496Z,1003.74
2019-03-09T03:03:17.205Z,1003.65
2019-03-09T03:04:26.926Z,1003.63
2019-03-09T03:05:36.863Z,1003.62
2019-03-09T03:06:46.810Z,1003.67
2019-03-09T03:07:56.531Z,1003.65
2019-03-09T03:09:06.472Z,1003.64
2019-03-09T03:10:16.473Z,1003.64
2019-03-09T03:11:26.644Z,1003.56
2019-03-09T03:12:38.025Z,1003.67
2019-03-09T03:13:47.930Z,1003.5
2019-03-09T03:14:57.924Z,1003.42
2019-03-09T03:16:07.255Z,1003.45
2019-03-09T03:17:16.726Z,1003.71
2019-03-09T03:18:26.703Z,1003.41
2019-03-09T03:19:36.670Z,1003.35
2019-03-09T03:20:46.665Z,1003.27
2019-03-09T03:21:56.611Z,1003.24
2019-03-09T03:23:06.580Z,1003.32
2019-03-09T03:24:16.282Z,1003.15
2019-03-09T03:25:26.000Z,1003.18
2019-03-09T03:26:35.979Z,1003.03
2019-03-09T03:27:45.929Z,1003.04
2019-03-09T03:28:55.907Z,1003
2019-03-09T03:30:05.851Z,1002.95
2019-03-09T03:31:15.847Z,1002.99
2019-03-09T03:32:25.925Z,1002.92
2019-03-09T03:33:35.896Z,1002.9
2019-03-09T03:34:45.755Z,1002.87
2019-03-09T03:35:55.832Z,1002.84
2019-03-09T03:37:05.825Z,1002.74
2019-03-09T03:38:15.620Z,1002.68
2019-03-09T03:39:25.589Z,1002.73
2019-03-09T03:40:35.536Z,1002.68
2019-03-09T03:41:45.483Z,1002.73
2019-03-09T03:42:55.446Z,1002.62
2019-03-09T03:44:05.464Z,1002.66
2019-03-09T03:45:15.164Z,1002.72
2019-03-09T03:46:25.179Z,1002.62
2019-03-09T03:47:35.158Z,1002.56
2019-03-09T03:48:44.606Z,1002.53
2019-03-09T03:49:54.568Z,1002.49
2019-03-09T03:51:04.031Z,1002.44
2019-03-09T03:52:14.001Z,1002.47
2019-03-09T03:53:23.959Z,1002.41
2019-03-09T03:54:33.680Z,1002.36
2019-03-09T03:55:43.386Z,1002.44
2019-03-09T03:56:53.338Z,1002.29
2019-03-09T03:58:03.091Z,1002.5
2019-03-09T03:59:13.057Z,1002.36
2019-03-09T04:00:22.769Z,1002.28
2019-03-09T04:01:32.514Z,1002.33
2019-03-09T04:02:41.759Z,1002.3
2019-03-09T04:03:51.474Z,1002.32
2019-03-09T04:05:01.446Z,1002.27
2019-03-09T04:06:11.225Z,1002.17
2019-03-09T04:07:20.911Z,1002.17
2019-03-09T04:08:30.871Z,1002.09
2019-03-09T04:09:40.871Z,1002.08
2019-03-09T04:10:50.829Z,1002.03
2019-03-09T04:12:00.803Z,1002.07
2019-03-09T04:13:10.766Z,1002.02
2019-03-09T04:14:20.759Z,1001.97
2019-03-09T04:15:30.713Z,1001.99
2019-03-09T04:16:40.201Z,1002.01
2019-03-09T04:17:49.897Z,1001.92
2019-03-09T04:18:59.956Z,1001.9
2019-03-09T04:20:09.905Z,1001.79
2019-03-09T04:21:19.390Z,1001.81
2019-03-09T04:22:28.596Z,1001.72
2019-03-09T04:23:38.321Z,1001.73
2019-03-09T04:24:48.298Z,1001.79
2019-03-09T04:25:58.288Z,1001.72
2019-03-09T04:27:08.278Z,1001.7
2019-03-09T04:28:18.254Z,1001.64
2019-03-09T04:29:28.202Z,1001.54
2019-03-09T04:30:38.150Z,1001.53
2019-03-09T04:31:48.091Z,1001.7
2019-03-09T04:32:57.534Z,1001.51
2019-03-09T04:34:06.968Z,1001.43
2019-03-09T04:35:16.926Z,1001.37
2019-03-09T04:36:26.886Z,1001.43
2019-03-09T04:37:36.371Z,1001.39
2019-03-09T04:38:46.338Z,1001.44
2019-03-09T04:39:55.789Z,1001.41
2019-03-09T04:41:05.530Z,1001.37
2019-03-09T04:42:15.476Z,1001.37
2019-03-09T04:43:25.420Z,1001.36
2019-03-09T04:44:35.097Z,1001.31
2019-03-09T04:45:44.777Z,1001.17
2019-03-09T04:46:54.475Z,1001.07
2019-03-09T04:48:04.420Z,1001.15
2019-03-09T04:49:13.891Z,1001.16
2019-03-09T04:50:23.580Z,1001.09
2019-03-09T04:51:33.520Z,1001.03
2019-03-09T04:52:43.474Z,1001.01
2019-03-09T04:53:53.164Z,1000.96
2019-03-09T04:55:03.099Z,1000.97
2019-03-09T04:56:12.547Z,1001
2019-03-09T04:57:22.489Z,1000.83
2019-03-09T04:58:31.932Z,1000.8
2019-03-09T04:59:41.613Z,1000.76
2019-03-09T05:00:51.556Z,1000.86
2019-03-09T05:02:00.985Z,1000.83
2019-03-09T05:03:10.667Z,1000.71
2019-03-09T05:04:20.351Z,1000.75
2019-03-09T05:05:30.037Z,1000.94
2019-03-09T05:06:39.972Z,1000.61
2019-03-09T05:07:49.922Z,1000.48
2019-03-09T05:08:59.356Z,1000.57
2019-03-09T05:10:09.315Z,1000.63
2019-03-09T05:11:19.263Z,1000.53
2019-03-09T05:12:29.214Z,1000.49
2019-03-09T05:13:39.163Z,1000.43
2019-03-09T05:14:49.113Z,1000.43
2019-03-09T05:15:59.085Z,1000.37
2019-03-09T05:17:09.033Z,1000.26
2019-03-09T05:18:18.992Z,1000.31
2019-03-09T05:19:28.680Z,1000.43
2019-03-09T05:20:38.632Z,1000.36
2019-03-09T05:21:48.579Z,1000.3
2019-03-09T05:22:58.283Z,1000.23
2019-03-09T05:24:07.989Z,1000.25
2019-03-09T05:25:17.968Z,1000.19
2019-03-09T05:26:27.904Z,1000.22
2019-03-09T05:27:37.846Z,1000.08
2019-03-09T05:28:47.781Z,999.97
2019-03-09T05:29:57.733Z,1000.05
2019-03-09T05:31:07.907Z,999.87
2019-03-09T05:32:17.849Z,999.8
2019-03-09T05:33:27.534Z,999.93
2019-03-09T05:34:37.228Z,999.89
2019-03-09T05:35:47.164Z,999.88
2019-03-09T05:36:57.128Z,999.83
2019-03-09T05:38:06.834Z,999.73
2019-03-09T05:39:16.523Z,999.78
2019-03-09T05:40:26.203Z,999.8
2019-03-09T05:41:36.149Z,999.99
2019-03-09T05:42:45.589Z,999.72
2019-03-09T05:43:55.039Z,999.64
2019-03-09T05:45:04.988Z,999.76
2019-03-09T05:46:14.931Z,999.64
2019-03-09T05:47:24.907Z,999.69
2019-03-09T05:48:34.842Z,999.43
2019-03-09T05:49:44.783Z,999.68
2019-03-09T05:50:54.721Z,999.53
2019-03-09T05:52:04.719Z,999.56
2019-03-09T05:53:14.652Z,999.4
2019-03-09T05:54:24.585Z,999.46
2019-03-09T05:55:34.273Z,999.56
2019-03-09T05:56:44.225Z,999.41
2019-03-09T05:57:54.165Z,999.43
2019-03-09T05:59:04.142Z,999.36
2019-03-09T06:00:14.099Z,999.47
2019-03-09T06:01:23.790Z,999.44
2019-03-09T06:02:33.723Z,999.49
2019-03-09T06:03:43.716Z,999.48
2019-03-09T06:04:53.671Z,999.48
2019-03-09T06:06:03.719Z,999.43
2019-03-09T06:07:13.451Z,999.48
2019-03-09T06:08:23.154Z,999.37
2019-03-09T06:09:32.849Z,999.29
2019-03-09T06:10:42.779Z,999.35
2019-03-09T06:11:52.715Z,999.34
2019-03-09T06:13:02.683Z,999.38
2019-03-09T06:14:12.375Z,999.32
2019-03-09T06:15:22.317Z,999.21
2019-03-09T06:16:32.265Z,999.3
2019-03-09T06:17:41.956Z,999.32
2019-03-09T06:18:51.897Z,999.26
2019-03-09T06:20:01.868Z,999.17
2019-03-09T06:21:11.803Z,999.2
2019-03-09T06:22:21.783Z,999.32
2019-03-09T06:23:31.245Z,999.19
2019-03-09T06:24:41.199Z,999.13
2019-03-09T06:25:50.660Z,999.21
2019-03-09T06:27:00.628Z,999.06
2019-03-09T06:28:10.576Z,999.2
2019-03-09T06:29:20.521Z,999.1
2019-03-09T06:30:30.476Z,999.02
2019-03-09T06:31:39.923Z,999
2019-03-09T06:32:51.365Z,999.08
2019-03-09T06:34:01.311Z,998.98
2019-03-09T06:35:11.248Z,999
2019-03-09T06:36:21.190Z,998.95
2019-03-09T06:37:31.123Z,998.9
2019-03-09T06:38:40.825Z,998.9
2019-03-09T06:39:50.537Z,998.97
2019-03-09T06:41:03.033Z,999.09
2019-03-09T06:42:12.737Z,998.8
2019-03-09T06:43:22.763Z,999.06
2019-03-09T06:44:32.447Z,998.99
2019-03-09T06:45:42.409Z,999.03
2019-03-09T06:46:52.363Z,998.94
2019-03-09T06:48:02.316Z,998.81
2019-03-09T06:49:12.030Z,998.83
2019-03-09T06:50:21.970Z,999.02
2019-03-09T06:51:31.657Z,998.66
2019-03-09T06:52:41.095Z,998.66
2019-03-09T06:53:51.042Z,998.64
2019-03-09T06:55:00.986Z,998.71
2019-03-09T06:56:10.490Z,998.77
2019-03-09T06:57:20.196Z,998.77
2019-03-09T06:58:29.689Z,998.77
2019-03-09T06:59:39.644Z,998.79
2019-03-09T07:00:49.347Z,999.01
2019-03-09T07:01:59.033Z,998.72
2019-03-09T07:03:08.979Z,998.63
2019-03-09T07:04:18.938Z,998.6
2019-03-09T07:05:28.693Z,998.75
2019-03-09T07:06:38.140Z,998.78
2019-03-09T07:07:47.845Z,998.47
2019-03-09T07:08:57.545Z,998.48
2019-03-09T07:10:07.501Z,998.54
2019-03-09T07:11:17.201Z,998.58
2019-03-09T07:12:26.652Z,998.61
2019-03-09T07:13:36.617Z,998.57
2019-03-09T07:14:55.601Z,998.65
2019-03-09T07:16:05.622Z,998.57
2019-03-09T07:17:15.338Z,998.63
2019-03-09T07:18:25.029Z,998.43
2019-03-09T07:19:34.480Z,998.3
2019-03-09T07:20:44.425Z,998.4
2019-03-09T07:21:54.445Z,998.25
2019-03-09T07:23:04.391Z,998.25
2019-03-09T07:24:14.087Z,998.18
2019-03-09T07:25:23.781Z,998.46
2019-03-09T07:26:33.730Z,998.48
2019-03-09T07:27:43.678Z,998.46
2019-03-09T07:28:53.608Z,998.51
2019-03-09T07:30:03.295Z,998.45
2019-03-09T07:31:13.242Z,998.41
2019-03-09T07:32:22.678Z,998.24
2019-03-09T07:33:32.393Z,998.21
2019-03-09T07:34:42.095Z,998.21
2019-03-09T07:35:52.032Z,998.22
2019-03-09T07:37:01.735Z,998.33
2019-03-09T07:38:11.172Z,998.3
2019-03-09T07:39:21.308Z,998.43
2019-03-09T07:40:31.024Z,998.55
2019-03-09T07:41:40.773Z,998.54
2019-03-09T07:42:50.514Z,998.51
2019-03-09T07:44:00.200Z,998.53
2019-03-09T07:45:10.147Z,998.65
2019-03-09T07:46:20.082Z,998.36
2019-03-09T07:47:29.792Z,998.42
2019-03-09T07:48:40.853Z,998.24
2019-03-09T07:49:50.634Z,998.05
2019-03-09T07:51:00.749Z,998.27
2019-03-09T07:52:10.693Z,998.23
2019-03-09T07:53:20.661Z,998.46
2019-03-09T07:54:30.604Z,998.37
2019-03-09T07:55:40.056Z,998.28
2019-03-09T07:56:50.018Z,998.26
2019-03-09T07:57:59.463Z,998.3
2019-03-09T07:59:09.412Z,998.23
2019-03-09T08:00:18.852Z,998.33
2019-03-09T08:01:28.539Z,998.35
2019-03-09T08:02:38.490Z,998.34
2019-03-09T08:03:48.430Z,998.3
2019-03-09T08:04:57.868Z,998.52
2019-03-09T08:06:07.924Z,998.51
2019-03-09T08:07:17.878Z,998.54
2019-03-09T08:08:27.576Z,998.39
2019-03-09T08:09:37.532Z,998.73
2019-03-09T08:10:47.474Z,998.38
2019-03-09T08:11:56.966Z,998.28
2019-03-09T08:13:06.678Z,998.52
2019-03-09T08:14:16.639Z,998.77
2019-03-09T08:15:26.339Z,998.53
2019-03-09T08:16:36.292Z,998.5
2019-03-09T08:17:45.996Z,998.86
2019-03-09T08:18:56.450Z,999.15
2019-03-09T08:20:06.412Z,998.64
2019-03-09T08:21:16.424Z,998.77
2019-03-09T08:22:25.985Z,998.92
2019-03-09T08:23:35.705Z,998.8
2019-03-09T08:24:45.676Z,998.75
2019-03-09T08:25:55.672Z,998.73
2019-03-09T08:27:05.650Z,998.77
2019-03-09T08:28:16.400Z,998.8
2019-03-09T08:29:26.666Z,998.6
2019-03-09T08:30:36.392Z,998.95
2019-03-09T08:31:46.134Z,998.91
2019-03-09T08:32:56.092Z,998.99
2019-03-09T08:34:06.087Z,998.81
2019-03-09T08:35:15.796Z,998.8
2019-03-09T08:36:25.512Z,998.76
2019-03-09T08:37:37.780Z,998.77
2019-03-09T08:38:47.754Z,999.18
2019-03-09T08:39:57.707Z,998.77
2019-03-09T08:41:07.743Z,998.79
2019-03-09T08:42:17.736Z,998.86
2019-03-09T08:43:27.727Z,998.74
2019-03-09T08:44:37.450Z,998.88
2019-03-09T08:45:47.455Z,998.89
2019-03-09T08:46:57.223Z,998.74
2019-03-09T08:48:07.321Z,998.96
2019-03-09T08:49:17.346Z,998.82
2019-03-09T08:50:27.068Z,998.89
2019-03-09T08:51:36.806Z,999.05
2019-03-09T08:52:46.799Z,998.94
2019-03-09T08:53:56.538Z,998.92
2019-03-09T08:55:06.675Z,999
2019-03-09T08:56:18.716Z,998.88
2019-03-09T08:57:28.930Z,998.9
2019-03-09T08:58:38.989Z,998.88
2019-03-09T08:59:48.541Z,998.99
2019-03-09T09:00:58.079Z,999.04
2019-03-09T09:02:08.175Z,999.08
2019-03-09T09:03:17.684Z,999.04
2019-03-09T09:04:27.383Z,999.31
2019-03-09T09:05:39.547Z,999.21
2019-03-09T09:06:49.510Z,999.24
2019-03-09T09:07:59.508Z,999.13
2019-03-09T09:09:11.307Z,999.23
2019-03-09T09:10:21.525Z,999.17
2019-03-09T09:11:31.481Z,999.1
2019-03-09T09:12:40.939Z,999.04
2019-03-09T09:13:53.060Z,999.09
2019-03-09T09:15:02.765Z,999.06
2019-03-09T09:16:15.348Z,998.93
2019-03-09T09:17:25.059Z,998.99
2019-03-09T09:18:34.759Z,999.01
2019-03-09T09:19:44.708Z,999.03
2019-03-09T09:20:54.669Z,999.01
2019-03-09T09:22:06.658Z,999.03
2019-03-09T09:23:16.614Z,999.03
2019-03-09T09:24:26.559Z,998.91
2019-03-09T09:25:36.250Z,998.83
2019-03-09T09:26:46.203Z,998.98
2019-03-09T09:27:56.210Z,998.88
2019-03-09T09:29:06.162Z,999.19
2019-03-09T09:30:15.609Z,999.4
2019-03-09T09:31:25.315Z,998.95
2019-03-09T09:32:35.258Z,998.99
2019-03-09T09:33:44.703Z,999.32
2019-03-09T09:34:54.650Z,999.15
2019-03-09T09:36:04.630Z,999.2
2019-03-09T09:37:14.087Z,999.15
2019-03-09T09:38:24.050Z,999.29
2019-03-09T09:39:33.495Z,999.28
2019-03-09T09:40:43.196Z,999.51
2019-03-09T09:41:52.640Z,999.45
2019-03-09T09:43:04.786Z,999.46
2019-03-09T09:44:14.485Z,999.24
2019-03-09T09:45:23.966Z,999.35
2019-03-09T09:46:33.681Z,999.38
2019-03-09T09:47:43.371Z,999.56
2019-03-09T09:48:53.337Z,999.23
2019-03-09T09:50:03.288Z,999.54
2019-03-09T09:51:13.235Z,999.61
2019-03-09T09:52:22.932Z,999.53
2019-03-09T09:53:32.882Z,999.67
2019-03-09T09:54:42.588Z,999.65
2019-03-09T09:55:52.643Z,999.54
2019-03-09T09:57:02.395Z,999.52
2019-03-09T09:58:11.878Z,999.58
2019-03-09T09:59:21.846Z,999.66
2019-03-09T10:00:31.794Z,999.63
2019-03-09T10:01:41.489Z,999.6
2019-03-09T10:02:51.435Z,999.63
2019-03-09T10:04:01.141Z,999.46
2019-03-09T10:05:13.023Z,999.58
2019-03-09T10:06:22.753Z,999.32
2019-03-09T10:07:32.702Z,999.3
2019-03-09T10:08:42.682Z,999.42
2019-03-09T10:09:52.629Z,999.44
2019-03-09T10:11:02.322Z,999.51
2019-03-09T10:12:11.775Z,999.66
2019-03-09T10:13:21.739Z,999.54
2019-03-09T10:14:31.715Z,999.82
2019-03-09T10:15:41.661Z,999.64
2019-03-09T10:16:51.618Z,999.51
2019-03-09T10:18:01.575Z,999.66
2019-03-09T10:19:11.325Z,999.75
2019-03-09T10:20:21.286Z,999.48
2019-03-09T10:21:31.000Z,999.71
2019-03-09T10:22:40.707Z,999.61
2019-03-09T10:23:50.392Z,999.62
2019-03-09T10:25:00.118Z,999.85
2019-03-09T10:26:09.602Z,999.82
2019-03-09T10:27:19.303Z,999.94
2019-03-09T10:28:28.597Z,999.97
2019-03-09T10:29:38.075Z,999.75
2019-03-09T10:30:47.772Z,999.88
2019-03-09T10:31:57.218Z,999.78
2019-03-09T10:33:07.185Z,999.82
2019-03-09T10:34:17.168Z,999.94
2019-03-09T10:35:27.122Z,999.9
2019-03-09T10:36:37.093Z,999.96
2019-03-09T10:37:46.539Z,1000.02
2019-03-09T10:38:56.239Z,999.94
2019-03-09T10:40:06.185Z,1000.03
2019-03-09T10:41:16.148Z,999.98
2019-03-09T10:42:26.119Z,1000.02
2019-03-09T10:43:36.070Z,999.93
2019-03-09T10:44:45.789Z,999.93
2019-03-09T10:45:57.196Z,999.97
2019-03-09T10:47:07.163Z,1000.01
2019-03-09T10:48:17.178Z,999.99
2019-03-09T10:49:26.877Z,1000.23
2019-03-09T10:50:36.568Z,999.98
2019-03-09T10:51:46.004Z,1000.23
2019-03-09T10:52:55.942Z,1000.29
2019-03-09T10:54:05.881Z,1000.14
2019-03-09T10:55:15.584Z,1000.17
2019-03-09T10:56:25.286Z,1000.19
2019-03-09T10:57:35.227Z,1000.01
2019-03-09T10:58:45.182Z,1000.44
2019-03-09T10:59:54.896Z,999.96
2019-03-09T11:01:04.591Z,1000.14
2019-03-09T11:02:14.295Z,1000.09
2019-03-09T11:03:24.248Z,1000.21
2019-03-09T11:04:34.247Z,1000.22
2019-03-09T11:05:43.695Z,1000.1
2019-03-09T11:06:52.901Z,1000.17
2019-03-09T11:08:02.609Z,1000.18
2019-03-09T11:09:12.303Z,1000.13
2019-03-09T11:10:21.794Z,1000.1
2019-03-09T11:11:31.761Z,1000.15
2019-03-09T11:12:41.205Z,1000.16
2019-03-09T11:13:52.241Z,1000.08
2019-03-09T11:15:02.272Z,1000.13
2019-03-09T11:16:12.218Z,1000.01
2019-03-09T11:17:22.182Z,1000.2
2019-03-09T11:18:31.899Z,1000.13
2019-03-09T11:19:41.847Z,1000.22
2019-03-09T11:20:51.811Z,1000.11
2019-03-09T11:22:01.753Z,1000.01
2019-03-09T11:23:11.764Z,999.99
2019-03-09T11:24:21.713Z,1000.11
2019-03-09T11:25:31.687Z,1000.02
2019-03-09T11:26:41.393Z,999.92
2019-03-09T11:27:51.346Z,1000.09
2019-03-09T11:29:01.303Z,1000.15
2019-03-09T11:30:11.285Z,999.97
2019-03-09T11:31:20.987Z,1000.25
2019-03-09T11:32:30.728Z,999.97
2019-03-09T11:33:40.683Z,1000
2019-03-09T11:34:50.378Z,999.95
2019-03-09T11:36:00.067Z,1000.03
2019-03-09T11:37:09.527Z,1000.01
2019-03-09T11:38:19.228Z,1000.02
2019-03-09T11:39:28.919Z,999.91
2019-03-09T11:40:38.703Z,999.84
2019-03-09T11:42:01.356Z,999.91
2019-03-09T11:43:11.372Z,999.94
2019-03-09T11:44:21.332Z,999.87
2019-03-09T11:45:31.025Z,999.96
2019-03-09T11:46:40.971Z,1000
2019-03-09T11:47:50.927Z,999.9
2019-03-09T11:49:00.625Z,999.89
2019-03-09T11:50:10.579Z,1000
2019-03-09T11:51:20.297Z,1000.07
2019-03-09T11:52:29.993Z,1000.14
2019-03-09T11:53:39.990Z,1000.09
2019-03-09T11:54:49.689Z,999.94
2019-03-09T11:55:59.653Z,999.89
2019-03-09T11:57:09.601Z,999.94
2019-03-09T11:58:19.561Z,999.83
2019-03-09T11:59:29.529Z,999.86
2019-03-09T12:00:38.995Z,999.84
2019-03-09T12:01:48.720Z,1000.15
2019-03-09T12:02:58.422Z,1000.02
2019-03-09T12:04:08.129Z,999.7
2019-03-09T12:05:17.587Z,999.94
2019-03-09T12:06:27.535Z,999.89
2019-03-09T12:07:37.487Z,999.74
2019-03-09T12:08:47.443Z,999.86
2019-03-09T12:09:57.405Z,999.83
2019-03-09T12:11:07.369Z,999.79
2019-03-09T12:12:17.101Z,999.92
2019-03-09T12:13:27.043Z,999.95
2019-03-09T12:14:36.999Z,999.77
2019-03-09T12:15:46.704Z,999.8
2019-03-09T12:16:56.659Z,999.81
2019-03-09T12:18:12.885Z,999.86
2019-03-09T12:19:22.583Z,999.63
2019-03-09T12:20:32.041Z,999.86
2019-03-09T12:21:41.741Z,999.8
2019-03-09T12:22:51.734Z,999.92
2019-03-09T12:24:16.351Z,999.8
2019-03-09T12:25:27.739Z,999.84
2019-03-09T12:26:37.446Z,999.83
2019-03-09T12:27:47.393Z,999.75
2019-03-09T12:28:57.341Z,999.96
2019-03-09T12:30:07.036Z,999.9
2019-03-09T12:31:16.771Z,999.93
2019-03-09T12:32:26.219Z,1000.03
2019-03-09T12:33:35.951Z,1000.06
2019-03-09T12:34:45.654Z,1000.22
2019-03-09T12:35:55.624Z,999.88
2019-03-09T12:37:05.591Z,999.94
2019-03-09T12:38:15.306Z,999.99
2019-03-09T12:39:25.260Z,999.88
2019-03-09T12:40:35.227Z,999.87
2019-03-09T12:41:45.206Z,999.65
2019-03-09T12:42:57.727Z,999.78
2019-03-09T12:44:07.698Z,999.78
2019-03-09T12:45:17.700Z,999.84
2019-03-09T12:46:27.665Z,999.73
2019-03-09T12:47:37.129Z,999.76
2019-03-09T12:48:47.101Z,999.65
2019-03-09T12:49:56.803Z,999.66
2019-03-09T12:51:06.769Z,999.63
2019-03-09T12:52:16.482Z,999.73
2019-03-09T12:53:26.182Z,999.76
2019-03-09T12:54:35.878Z,999.76
2019-03-09T12:55:45.842Z,999.86
2019-03-09T12:56:55.566Z,999.72
2019-03-09T12:58:05.523Z,999.63
2019-03-09T12:59:15.469Z,999.71
2019-03-09T13:00:25.443Z,999.67
2019-03-09T13:01:35.447Z,999.74
2019-03-09T13:02:45.406Z,999.58
2019-03-09T13:03:55.377Z,999.8
2019-03-09T13:05:05.342Z,999.5
2019-03-09T13:06:15.049Z,999.55
2019-03-09T13:07:24.794Z,999.8
2019-03-09T13:08:34.762Z,999.61
2019-03-09T13:09:44.477Z,999.62
2019-03-09T13:10:55.915Z,999.77
2019-03-09T13:12:06.047Z,999.54
2019-03-09T13:13:16.292Z,999.45
2019-03-09T13:14:26.284Z,999.58
2019-03-09T13:15:35.746Z,999.5
2019-03-09T13:16:45.716Z,999.42
2019-03-09T13:17:55.423Z,999.32
2019-03-09T13:19:05.394Z,999.46
2019-03-09T13:20:15.109Z,999.62
2019-03-09T13:21:25.070Z,999.33
2019-03-09T13:22:34.779Z,999.36
2019-03-09T13:23:44.484Z,999.31
2019-03-09T13:24:54.434Z,999.33
2019-03-09T13:26:04.145Z,999.34
2019-03-09T13:27:14.101Z,999.46
2019-03-09T13:28:23.797Z,999.7
2019-03-09T13:29:33.965Z,999.33
2019-03-09T13:30:43.952Z,999.28
2019-03-09T13:31:53.892Z,999.19
2019-03-09T13:33:03.877Z,999.14
2019-03-09T13:34:13.332Z,999.2
2019-03-09T13:35:23.301Z,999.09
2019-03-09T13:36:33.001Z,999.12
2019-03-09T13:37:42.946Z,999.19
2019-03-09T13:38:52.397Z,999.08
2019-03-09T13:40:02.361Z,999.19
2019-03-09T13:41:12.315Z,999.06
2019-03-09T13:42:22.033Z,999.13
2019-03-09T13:43:31.806Z,999.06
2019-03-09T13:44:41.758Z,999.06
2019-03-09T13:45:51.734Z,998.98
2019-03-09T13:47:04.090Z,999.17
2019-03-09T13:48:14.309Z,998.98
2019-03-09T13:49:24.027Z,999.01
2019-03-09T13:50:33.720Z,998.94
2019-03-09T13:51:43.668Z,998.98
2019-03-09T13:52:53.384Z,999
2019-03-09T13:54:03.096Z,998.95
2019-03-09T13:55:12.801Z,999.09
2019-03-09T13:56:22.259Z,999.15
2019-03-09T13:57:31.965Z,999.1
2019-03-09T13:58:41.427Z,998.94
2019-03-09T13:59:51.128Z,999.02
2019-03-09T14:01:01.101Z,998.96
2019-03-09T14:02:10.861Z,998.87
2019-03-09T14:03:20.816Z,998.87
2019-03-09T14:04:30.766Z,998.95
2019-03-09T14:05:40.467Z,998.87
2019-03-09T14:06:50.438Z,998.95
2019-03-09T14:08:00.408Z,998.82
2019-03-09T14:09:10.108Z,998.56
2019-03-09T14:10:19.800Z,998.83
2019-03-09T14:11:29.503Z,998.81
2019-03-09T14:12:39.444Z,998.57
2019-03-09T14:13:48.904Z,998.62
2019-03-09T14:14:58.865Z,998.73
2019-03-09T14:16:08.828Z,998.44
2019-03-09T14:17:18.538Z,998.81
2019-03-09T14:18:28.485Z,998.5
2019-03-09T14:19:37.942Z,998.65
2019-03-09T14:20:48.483Z,998.47
2019-03-09T14:21:58.567Z,998.41
2019-03-09T14:23:08.559Z,998.39
2019-03-09T14:24:18.267Z,998.5